sensor_id;sensor_type;location;lat;lon;timestamp;pressure;altitude;pressure_sealevel;temperature;humidity
20023;BME280;10172;42.054;24.546;2023-03-05T00:00:11;97758.41;;;3.73;100.00
20023;BME280;10172;42.054;24.546;2023-03-05T00:02:37;97755.47;;;3.26;100.00
20023;BME280;10172;42.054;24.546;2023-03-05T00:05:02;97765.81;;;3.48;100.00
20023;BME280;10172;42.054;24.546;2023-03-05T00:07:28;97740.72;;;3.59;100.00
20023;BME280;10172;42.054;24.546;2023-03-05T00:09:53;97741.81;;;3.37;100.00
20023;BME280;10172;42.054;24.546;2023-03-05T00:12:19;97751.19;;;3.24;100.00
20023;BME280;10172;42.054;24.546;2023-03-05T00:14:44;97718.81;;;2.86;100.00
20023;BME280;10172;42.054;24.546;2023-03-05T00:17:09;97762.72;;;3.21;100.00
20023;BME280;10172;42.054;24.546;2023-03-05T00:19:35;97764.44;;;3.94;100.00
20023;BME280;10172;42.054;24.546;2023-03-05T00:22:00;97740.06;;;3.54;100.00
20023;BME280;10172;42.054;24.546;2023-03-05T00:24:26;97745.06;;;3.42;100.00
20023;BME280;10172;42.054;24.546;2023-03-05T00:26:51;97689.34;;;3.87;100.00
20023;BME280;10172;42.054;24.546;2023-03-05T00:29:18;97734.84;;;4.23;100.00
20023;BME280;10172;42.054;24.546;2023-03-05T00:31:46;97740.63;;;3.61;100.00
20023;BME280;10172;42.054;24.546;2023-03-05T00:34:14;97742.84;;;4.21;100.00
20023;BME280;10172;42.054;24.546;2023-03-05T00:36:45;97731.97;;;4.28;100.00
20023;BME280;10172;42.054;24.546;2023-03-05T00:39:11;97694.44;;;3.90;100.00
20023;BME280;10172;42.054;24.546;2023-03-05T00:41:37;97741.06;;;4.05;100.00
20023;BME280;10172;42.054;24.546;2023-03-05T00:44:03;97727.72;;;4.25;100.00
20023;BME280;10172;42.054;24.546;2023-03-05T00:46:29;97729.91;;;4.67;100.00
20023;BME280;10172;42.054;24.546;2023-03-05T00:48:55;97688.59;;;4.02;100.00
20023;BME280;10172;42.054;24.546;2023-03-05T00:51:21;97730.28;;;3.92;100.00
20023;BME280;10172;42.054;24.546;2023-03-05T00:53:47;97707.13;;;3.82;100.00
20023;BME280;10172;42.054;24.546;2023-03-05T00:56:12;97737.75;;;3.66;100.00
20023;BME280;10172;42.054;24.546;2023-03-05T00:58:38;97698.09;;;3.34;100.00
20023;BME280;10172;42.054;24.546;2023-03-05T01:01:05;97727.13;;;3.50;100.00
20023;BME280;10172;42.054;24.546;2023-03-05T01:03:32;97725.22;;;3.53;100.00
20023;BME280;10172;42.054;24.546;2023-03-05T01:05:58;97710.56;;;3.12;100.00
20023;BME280;10172;42.054;24.546;2023-03-05T01:08:25;97707.69;;;3.35;100.00
20023;BME280;10172;42.054;24.546;2023-03-05T01:10:51;97727.59;;;3.94;100.00
20023;BME280;10172;42.054;24.546;2023-03-05T01:13:16;97721.84;;;4.03;100.00
20023;BME280;10172;42.054;24.546;2023-03-05T01:15:42;97725.94;;;4.08;100.00
20023;BME280;10172;42.054;24.546;2023-03-05T01:18:07;97717.03;;;4.45;100.00
20023;BME280;10172;42.054;24.546;2023-03-05T01:20:33;97693.03;;;4.34;100.00
20023;BME280;10172;42.054;24.546;2023-03-05T01:22:58;97676.97;;;3.89;100.00
20023;BME280;10172;42.054;24.546;2023-03-05T01:25:26;97701.75;;;4.02;100.00
20023;BME280;10172;42.054;24.546;2023-03-05T01:27:52;97710.44;;;4.54;100.00
20023;BME280;10172;42.054;24.546;2023-03-05T01:30:18;97668.00;;;4.43;100.00
20023;BME280;10172;42.054;24.546;2023-03-05T01:32:44;97711.16;;;4.40;100.00
20023;BME280;10172;42.054;24.546;2023-03-05T01:35:15;97703.25;;;4.23;100.00
20023;BME280;10172;42.054;24.546;2023-03-05T01:37:41;97693.34;;;4.11;100.00
20023;BME280;10172;42.054;24.546;2023-03-05T01:40:08;97664.44;;;3.94;100.00
20023;BME280;10172;42.054;24.546;2023-03-05T01:42:34;97690.00;;;4.24;100.00
20023;BME280;10172;42.054;24.546;2023-03-05T01:45:01;97688.34;;;4.06;100.00
20023;BME280;10172;42.054;24.546;2023-03-05T01:47:27;97663.41;;;4.13;100.00
20023;BME280;10172;42.054;24.546;2023-03-05T01:49:52;97650.75;;;4.37;100.00
20023;BME280;10172;42.054;24.546;2023-03-05T01:52:20;97644.16;;;5.08;100.00
20023;BME280;10172;42.054;24.546;2023-03-05T01:54:49;97649.56;;;4.43;100.00
20023;BME280;10172;42.054;24.546;2023-03-05T01:59:48;97688.22;;;4.42;100.00
20023;BME280;10172;42.054;24.546;2023-03-05T02:02:15;97640.97;;;4.39;100.00
20023;BME280;10172;42.054;24.546;2023-03-05T02:04:49;97673.47;;;4.71;100.00
20023;BME280;10172;42.054;24.546;2023-03-05T02:07:15;97666.22;;;4.92;100.00
20023;BME280;10172;42.054;24.546;2023-03-05T02:09:41;97624.59;;;4.17;100.00
20023;BME280;10172;42.054;24.546;2023-03-05T02:12:09;97629.31;;;4.92;100.00
20023;BME280;10172;42.054;24.546;2023-03-05T02:14:36;97635.34;;;4.94;100.00
20023;BME280;10172;42.054;24.546;2023-03-05T02:17:02;97651.16;;;4.94;100.00
20023;BME280;10172;42.054;24.546;2023-03-05T02:19:28;97659.66;;;4.35;100.00
20023;BME280;10172;42.054;24.546;2023-03-05T02:21:54;97638.50;;;4.36;100.00
20023;BME280;10172;42.054;24.546;2023-03-05T02:24:35;97672.88;;;4.33;100.00
20023;BME280;10172;42.054;24.546;2023-03-05T02:27:02;97653.16;;;3.92;100.00
20023;BME280;10172;42.054;24.546;2023-03-05T02:29:29;97616.09;;;3.62;100.00
20023;BME280;10172;42.054;24.546;2023-03-05T02:31:56;97617.06;;;3.77;100.00
20023;BME280;10172;42.054;24.546;2023-03-05T02:34:22;97653.09;;;4.09;100.00
20023;BME280;10172;42.054;24.546;2023-03-05T02:36:48;97622.06;;;4.15;100.00
20023;BME280;10172;42.054;24.546;2023-03-05T02:39:15;97628.97;;;4.01;100.00
20023;BME280;10172;42.054;24.546;2023-03-05T02:41:41;97672.88;;;4.33;100.00
20023;BME280;10172;42.054;24.546;2023-03-05T02:44:06;97632.31;;;4.37;100.00
20023;BME280;10172;42.054;24.546;2023-03-05T02:46:32;97635.72;;;4.55;100.00
20023;BME280;10172;42.054;24.546;2023-03-05T02:48:57;97610.66;;;4.48;100.00
20023;BME280;10172;42.054;24.546;2023-03-05T02:51:23;97626.66;;;4.60;100.00
20023;BME280;10172;42.054;24.546;2023-03-05T02:53:48;97615.25;;;4.60;100.00
20023;BME280;10172;42.054;24.546;2023-03-05T02:56:14;97630.16;;;5.08;100.00
20023;BME280;10172;42.054;24.546;2023-03-05T02:58:39;97596.41;;;4.83;100.00
20023;BME280;10172;42.054;24.546;2023-03-05T03:01:07;97602.75;;;5.26;100.00
20023;BME280;10172;42.054;24.546;2023-03-05T03:03:33;97622.25;;;6.13;100.00
20023;BME280;10172;42.054;24.546;2023-03-05T03:05:59;97636.94;;;6.87;100.00
20023;BME280;10172;42.054;24.546;2023-03-05T03:08:24;97647.81;;;7.38;100.00
20023;BME280;10172;42.054;24.546;2023-03-05T03:10:50;97642.06;;;7.70;100.00
20023;BME280;10172;42.054;24.546;2023-03-05T03:13:15;97660.69;;;7.96;100.00
20023;BME280;10172;42.054;24.546;2023-03-05T03:15:41;97612.06;;;7.57;100.00
20023;BME280;10172;42.054;24.546;2023-03-05T03:18:06;97640.13;;;7.87;100.00
20023;BME280;10172;42.054;24.546;2023-03-05T03:20:32;97662.84;;;8.16;100.00
20023;BME280;10172;42.054;24.546;2023-03-05T03:22:59;97664.25;;;7.82;100.00
20023;BME280;10172;42.054;24.546;2023-03-05T03:25:25;97659.84;;;7.56;100.00
20023;BME280;10172;42.054;24.546;2023-03-05T03:27:51;97621.44;;;7.09;100.00
20023;BME280;10172;42.054;24.546;2023-03-05T03:30:16;97632.56;;;7.14;100.00
20023;BME280;10172;42.054;24.546;2023-03-05T03:32:42;97656.00;;;6.92;100.00
20023;BME280;10172;42.054;24.546;2023-03-05T03:35:08;97643.03;;;6.47;100.00
20023;BME280;10172;42.054;24.546;2023-03-05T03:37:34;97648.41;;;6.31;100.00
20023;BME280;10172;42.054;24.546;2023-03-05T03:39:59;97629.31;;;6.69;100.00
20023;BME280;10172;42.054;24.546;2023-03-05T03:42:24;97648.81;;;7.08;100.00
20023;BME280;10172;42.054;24.546;2023-03-05T03:44:50;97630.41;;;7.60;100.00
20023;BME280;10172;42.054;24.546;2023-03-05T03:47:16;97603.09;;;7.60;100.00
20023;BME280;10172;42.054;24.546;2023-03-05T03:49:41;97658.19;;;8.19;100.00
20023;BME280;10172;42.054;24.546;2023-03-05T03:52:07;97662.81;;;8.03;100.00
20023;BME280;10172;42.054;24.546;2023-03-05T03:54:32;97605.84;;;6.22;100.00
20023;BME280;10172;42.054;24.546;2023-03-05T03:56:58;97631.88;;;6.28;100.00
20023;BME280;10172;42.054;24.546;2023-03-05T03:59:23;97586.41;;;6.51;100.00
20023;BME280;10172;42.054;24.546;2023-03-05T04:01:49;97605.41;;;7.25;100.00
20023;BME280;10172;42.054;24.546;2023-03-05T04:04:15;97641.69;;;7.76;100.00
20023;BME280;10172;42.054;24.546;2023-03-05T04:06:40;97655.09;;;7.61;100.00
20023;BME280;10172;42.054;24.546;2023-03-05T04:09:06;97662.47;;;7.95;100.00
20023;BME280;10172;42.054;24.546;2023-03-05T04:11:36;97655.25;;;8.36;100.00
20023;BME280;10172;42.054;24.546;2023-03-05T04:14:02;97655.75;;;7.38;100.00
20023;BME280;10172;42.054;24.546;2023-03-05T04:16:27;97615.94;;;6.43;100.00
20023;BME280;10172;42.054;24.546;2023-03-05T04:18:53;97598.09;;;6.33;100.00
20023;BME280;10172;42.054;24.546;2023-03-05T04:21:18;97663.63;;;6.70;100.00
20023;BME280;10172;42.054;24.546;2023-03-05T04:23:44;97634.13;;;6.20;100.00
20023;BME280;10172;42.054;24.546;2023-03-05T04:26:10;97633.53;;;6.00;100.00
20023;BME280;10172;42.054;24.546;2023-03-05T04:28:35;97648.09;;;6.92;100.00
20023;BME280;10172;42.054;24.546;2023-03-05T04:31:01;97592.31;;;6.83;100.00
20023;BME280;10172;42.054;24.546;2023-03-05T04:33:27;97620.53;;;7.50;100.00
20023;BME280;10172;42.054;24.546;2023-03-05T04:35:52;97642.66;;;7.88;100.00
20023;BME280;10172;42.054;24.546;2023-03-05T04:38:18;97616.16;;;7.75;100.00
20023;BME280;10172;42.054;24.546;2023-03-05T04:40:44;97630.84;;;8.19;100.00
20023;BME280;10172;42.054;24.546;2023-03-05T04:43:09;97607.81;;;6.75;100.00
20023;BME280;10172;42.054;24.546;2023-03-05T04:45:38;97632.06;;;6.25;100.00
20023;BME280;10172;42.054;24.546;2023-03-05T04:48:04;97645.56;;;6.62;100.00
20023;BME280;10172;42.054;24.546;2023-03-05T04:50:29;97619.22;;;6.33;100.00
20023;BME280;10172;42.054;24.546;2023-03-05T04:52:56;97658.22;;;6.57;100.00
20023;BME280;10172;42.054;24.546;2023-03-05T04:55:21;97597.25;;;6.46;100.00
20023;BME280;10172;42.054;24.546;2023-03-05T04:57:47;97627.09;;;6.34;100.00
20023;BME280;10172;42.054;24.546;2023-03-05T05:00:14;97659.44;;;6.52;100.00
20023;BME280;10172;42.054;24.546;2023-03-05T05:02:45;97633.94;;;6.79;100.00
20023;BME280;10172;42.054;24.546;2023-03-05T05:05:14;97644.16;;;5.85;100.00
20023;BME280;10172;42.054;24.546;2023-03-05T05:07:40;97641.56;;;5.99;100.00
20023;BME280;10172;42.054;24.546;2023-03-05T05:10:06;97657.47;;;5.97;100.00
20023;BME280;10172;42.054;24.546;2023-03-05T05:12:35;97629.28;;;5.98;100.00
20023;BME280;10172;42.054;24.546;2023-03-05T05:15:01;97659.25;;;6.69;100.00
20023;BME280;10172;42.054;24.546;2023-03-05T05:17:26;97660.28;;;6.38;100.00
20023;BME280;10172;42.054;24.546;2023-03-05T05:19:55;97631.88;;;6.14;100.00
20023;BME280;10172;42.054;24.546;2023-03-05T05:22:21;97638.69;;;6.32;100.00
20023;BME280;10172;42.054;24.546;2023-03-05T05:24:47;97616.13;;;6.26;100.00
20023;BME280;10172;42.054;24.546;2023-03-05T05:27:12;97660.72;;;6.17;100.00
20023;BME280;10172;42.054;24.546;2023-03-05T05:29:38;97673.22;;;6.85;100.00
20023;BME280;10172;42.054;24.546;2023-03-05T05:32:03;97647.34;;;6.20;100.00
20023;BME280;10172;42.054;24.546;2023-03-05T05:34:29;97622.25;;;6.13;100.00
20023;BME280;10172;42.054;24.546;2023-03-05T05:36:54;97656.34;;;6.45;100.00
20023;BME280;10172;42.054;24.546;2023-03-05T05:39:20;97628.81;;;6.90;100.00
20023;BME280;10172;42.054;24.546;2023-03-05T05:41:49;97686.50;;;7.92;100.00
20023;BME280;10172;42.054;24.546;2023-03-05T05:44:15;97637.50;;;7.99;100.00
20023;BME280;10172;42.054;24.546;2023-03-05T05:46:40;97637.63;;;8.23;100.00
20023;BME280;10172;42.054;24.546;2023-03-05T05:49:05;97653.31;;;7.20;100.00
20023;BME280;10172;42.054;24.546;2023-03-05T05:51:31;97638.41;;;7.73;100.00
20023;BME280;10172;42.054;24.546;2023-03-05T05:53:56;97662.22;;;8.25;100.00
20023;BME280;10172;42.054;24.546;2023-03-05T05:56:22;97643.91;;;8.60;100.00
20023;BME280;10172;42.054;24.546;2023-03-05T05:58:48;97689.28;;;8.68;100.00
20023;BME280;10172;42.054;24.546;2023-03-05T06:01:25;97689.22;;;8.57;100.00
20023;BME280;10172;42.054;24.546;2023-03-05T06:03:52;97693.59;;;8.18;100.00
20023;BME280;10172;42.054;24.546;2023-03-05T06:06:20;97653.59;;;7.57;100.00
20023;BME280;10172;42.054;24.546;2023-03-05T06:08:46;97698.28;;;8.27;100.00
20023;BME280;10172;42.054;24.546;2023-03-05T06:11:12;97685.00;;;8.15;100.00
20023;BME280;10172;42.054;24.546;2023-03-05T06:13:38;97684.97;;;8.92;100.00
20023;BME280;10172;42.054;24.546;2023-03-05T06:16:06;97696.81;;;9.48;100.00
20023;BME280;10172;42.054;24.546;2023-03-05T06:18:33;97713.84;;;9.69;100.00
20023;BME280;10172;42.054;24.546;2023-03-05T06:21:01;97713.78;;;9.82;100.00
20023;BME280;10172;42.054;24.546;2023-03-05T06:23:27;97716.50;;;9.93;100.00
20023;BME280;10172;42.054;24.546;2023-03-05T06:25:54;97711.91;;;9.95;100.00
20023;BME280;10172;42.054;24.546;2023-03-05T06:28:20;97671.22;;;9.94;100.00
20023;BME280;10172;42.054;24.546;2023-03-05T06:30:46;97665.59;;;10.10;100.00
20023;BME280;10172;42.054;24.546;2023-03-05T06:33:11;97687.72;;;10.10;100.00
20023;BME280;10172;42.054;24.546;2023-03-05T06:35:38;97720.78;;;10.19;100.00
20023;BME280;10172;42.054;24.546;2023-03-05T06:38:05;97674.69;;;9.95;100.00
20023;BME280;10172;42.054;24.546;2023-03-05T06:40:30;97691.03;;;10.25;100.00
20023;BME280;10172;42.054;24.546;2023-03-05T06:42:56;97670.28;;;10.19;100.00
20023;BME280;10172;42.054;24.546;2023-03-05T06:45:21;97683.47;;;10.08;100.00
20023;BME280;10172;42.054;24.546;2023-03-05T06:47:47;97697.91;;;10.16;100.00
20023;BME280;10172;42.054;24.546;2023-03-05T06:50:12;97680.06;;;10.06;100.00
20023;BME280;10172;42.054;24.546;2023-03-05T06:52:38;97680.63;;;10.22;100.00
20023;BME280;10172;42.054;24.546;2023-03-05T06:55:06;97684.88;;;10.25;100.00
20023;BME280;10172;42.054;24.546;2023-03-05T06:57:32;97708.47;;;10.29;100.00
20023;BME280;10172;42.054;24.546;2023-03-05T06:59:57;97694.56;;;10.02;100.00
20023;BME280;10172;42.054;24.546;2023-03-05T07:02:23;97666.53;;;9.74;100.00
20023;BME280;10172;42.054;24.546;2023-03-05T07:04:48;97674.28;;;9.53;100.00
20023;BME280;10172;42.054;24.546;2023-03-05T07:07:14;97705.19;;;10.02;100.00
20023;BME280;10172;42.054;24.546;2023-03-05T07:09:39;97692.28;;;9.25;100.00
20023;BME280;10172;42.054;24.546;2023-03-05T07:12:11;97693.09;;;9.74;100.00
20023;BME280;10172;42.054;24.546;2023-03-05T07:14:37;97697.94;;;10.04;100.00
20023;BME280;10172;42.054;24.546;2023-03-05T07:17:06;97702.13;;;9.95;100.00
20023;BME280;10172;42.054;24.546;2023-03-05T07:19:32;97701.63;;;9.67;100.00
20023;BME280;10172;42.054;24.546;2023-03-05T07:21:58;97656.03;;;9.73;100.00
20023;BME280;10172;42.054;24.546;2023-03-05T07:24:23;97666.81;;;9.22;100.00
20023;BME280;10172;42.054;24.546;2023-03-05T07:26:55;97713.50;;;9.97;100.00
20023;BME280;10172;42.054;24.546;2023-03-05T07:29:21;97653.47;;;9.11;100.00
20023;BME280;10172;42.054;24.546;2023-03-05T07:31:47;97684.31;;;8.88;100.00
20023;BME280;10172;42.054;24.546;2023-03-05T07:34:13;97690.47;;;8.76;100.00
20023;BME280;10172;42.054;24.546;2023-03-05T07:36:38;97661.63;;;8.47;100.00
20023;BME280;10172;42.054;24.546;2023-03-05T07:39:04;97706.50;;;9.36;100.00
20023;BME280;10172;42.054;24.546;2023-03-05T07:41:30;97688.28;;;9.79;100.00
20023;BME280;10172;42.054;24.546;2023-03-05T07:43:56;97680.38;;;8.69;100.00
20023;BME280;10172;42.054;24.546;2023-03-05T07:46:25;97709.88;;;8.77;100.00
20023;BME280;10172;42.054;24.546;2023-03-05T07:48:51;97681.31;;;8.93;100.00
20023;BME280;10172;42.054;24.546;2023-03-05T07:51:19;97699.75;;;9.20;100.00
20023;BME280;10172;42.054;24.546;2023-03-05T07:53:47;97705.81;;;9.09;100.00
20023;BME280;10172;42.054;24.546;2023-03-05T07:56:16;97705.50;;;9.01;100.00
20023;BME280;10172;42.054;24.546;2023-03-05T07:58:44;97681.53;;;9.02;100.00
20023;BME280;10172;42.054;24.546;2023-03-05T08:01:11;97702.69;;;9.40;100.00
20023;BME280;10172;42.054;24.546;2023-03-05T08:03:40;97677.59;;;9.08;100.00
20023;BME280;10172;42.054;24.546;2023-03-05T08:06:07;97704.69;;;8.88;100.00
20023;BME280;10172;42.054;24.546;2023-03-05T08:08:32;97678.38;;;8.47;100.00
20023;BME280;10172;42.054;24.546;2023-03-05T08:11:12;97690.88;;;8.95;100.00
20023;BME280;10172;42.054;24.546;2023-03-05T08:13:38;97676.69;;;8.59;100.00
20023;BME280;10172;42.054;24.546;2023-03-05T08:16:10;97679.53;;;8.68;100.00
20023;BME280;10172;42.054;24.546;2023-03-05T08:18:36;97651.06;;;9.08;100.00
20023;BME280;10172;42.054;24.546;2023-03-05T08:21:02;97699.09;;;9.29;100.00
20023;BME280;10172;42.054;24.546;2023-03-05T08:23:28;97672.31;;;9.08;100.00
20023;BME280;10172;42.054;24.546;2023-03-05T08:25:54;97688.03;;;8.86;100.00
20023;BME280;10172;42.054;24.546;2023-03-05T08:28:19;97656.91;;;9.13;100.00
20023;BME280;10172;42.054;24.546;2023-03-05T08:30:46;97650.47;;;9.28;100.00
20023;BME280;10172;42.054;24.546;2023-03-05T08:33:12;97662.75;;;9.66;100.00
20023;BME280;10172;42.054;24.546;2023-03-05T08:35:38;97676.13;;;9.40;100.00
20023;BME280;10172;42.054;24.546;2023-03-05T08:38:04;97683.97;;;9.42;100.00
20023;BME280;10172;42.054;24.546;2023-03-05T08:40:30;97673.59;;;9.62;100.00
20023;BME280;10172;42.054;24.546;2023-03-05T08:42:56;97652.00;;;9.91;100.00
20023;BME280;10172;42.054;24.546;2023-03-05T08:45:22;97623.69;;;9.79;100.00
20023;BME280;10172;42.054;24.546;2023-03-05T08:47:49;97675.22;;;10.00;100.00
20023;BME280;10172;42.054;24.546;2023-03-05T08:50:14;97662.69;;;10.02;100.00
20023;BME280;10172;42.054;24.546;2023-03-05T08:52:40;97646.88;;;9.77;100.00
20023;BME280;10172;42.054;24.546;2023-03-05T08:55:05;97668.56;;;9.71;100.00
20023;BME280;10172;42.054;24.546;2023-03-05T08:57:31;97664.84;;;9.49;100.00
20023;BME280;10172;42.054;24.546;2023-03-05T08:59:56;97662.31;;;9.35;100.00
20023;BME280;10172;42.054;24.546;2023-03-05T09:02:22;97695.09;;;9.59;100.00
20023;BME280;10172;42.054;24.546;2023-03-05T09:04:47;97641.84;;;9.01;100.00
20023;BME280;10172;42.054;24.546;2023-03-05T09:07:13;97636.81;;;8.73;100.00
20023;BME280;10172;42.054;24.546;2023-03-05T09:09:38;97671.91;;;9.25;100.00
20023;BME280;10172;42.054;24.546;2023-03-05T09:12:04;97665.59;;;9.51;100.00
20023;BME280;10172;42.054;24.546;2023-03-05T09:14:30;97627.94;;;9.10;100.00
20023;BME280;10172;42.054;24.546;2023-03-05T09:16:56;97676.31;;;9.97;100.00
20023;BME280;10172;42.054;24.546;2023-03-05T09:19:23;97667.81;;;9.45;100.00
20023;BME280;10172;42.054;24.546;2023-03-05T09:21:48;97648.25;;;9.58;100.00
20023;BME280;10172;42.054;24.546;2023-03-05T09:24:14;97618.75;;;9.50;100.00
20023;BME280;10172;42.054;24.546;2023-03-05T09:26:39;97646.00;;;10.00;100.00
20023;BME280;10172;42.054;24.546;2023-03-05T09:29:08;97671.53;;;10.48;100.00
20023;BME280;10172;42.054;24.546;2023-03-05T09:31:35;97629.94;;;9.67;100.00
20023;BME280;10172;42.054;24.546;2023-03-05T09:34:01;97664.47;;;10.25;100.00
20023;BME280;10172;42.054;24.546;2023-03-05T09:36:28;97666.22;;;10.48;99.74
20023;BME280;10172;42.054;24.546;2023-03-05T09:38:54;97659.91;;;10.27;100.00
20023;BME280;10172;42.054;24.546;2023-03-05T09:42:01;97656.59;;;9.89;98.78
20023;BME280;10172;42.054;24.546;2023-03-05T09:44:56;97645.56;;;9.82;99.34
20023;BME280;10172;42.054;24.546;2023-03-05T09:50:29;97650.50;;;9.76;100.00
20023;BME280;10172;42.054;24.546;2023-03-05T09:53:04;97635.50;;;9.75;100.00
20023;BME280;10172;42.054;24.546;2023-03-05T09:55:39;97650.38;;;10.12;100.00
20023;BME280;10172;42.054;24.546;2023-03-05T10:00:45;97640.03;;;10.20;100.00
20023;BME280;10172;42.054;24.546;2023-03-05T10:03:38;97633.69;;;10.45;99.28
20023;BME280;10172;42.054;24.546;2023-03-05T10:08:50;97632.78;;;10.22;100.00
20023;BME280;10172;42.054;24.546;2023-03-05T10:13:58;97610.47;;;10.47;100.00
20023;BME280;10172;42.054;24.546;2023-03-05T10:25:02;97604.44;;;10.34;95.05
20023;BME280;10172;42.054;24.546;2023-03-05T10:27:47;97598.78;;;10.71;95.34
20023;BME280;10172;42.054;24.546;2023-03-05T10:33:48;97595.97;;;10.29;89.22
20023;BME280;10172;42.054;24.546;2023-03-05T10:36:37;97573.88;;;10.61;91.64
20023;BME280;10172;42.054;24.546;2023-03-05T10:39:25;97570.47;;;10.93;88.84
20023;BME280;10172;42.054;24.546;2023-03-05T10:45:23;97550.66;;;10.41;89.09
20023;BME280;10172;42.054;24.546;2023-03-05T10:47:51;97561.31;;;10.52;89.73
20023;BME280;10172;42.054;24.546;2023-03-05T10:50:22;97525.78;;;10.64;92.23
20023;BME280;10172;42.054;24.546;2023-03-05T10:55:39;97537.13;;;10.44;85.84
20023;BME280;10172;42.054;24.546;2023-03-05T10:58:13;97525.63;;;10.77;85.46
20023;BME280;10172;42.054;24.546;2023-03-05T11:00:40;97540.25;;;10.71;85.87
20023;BME280;10172;42.054;24.546;2023-03-05T11:03:09;97528.81;;;10.49;85.24
20023;BME280;10172;42.054;24.546;2023-03-05T11:05:42;97533.03;;;10.51;85.07
20023;BME280;10172;42.054;24.546;2023-03-05T11:08:28;97523.16;;;11.07;87.05
20023;BME280;10172;42.054;24.546;2023-03-05T11:11:20;97511.00;;;11.14;84.70
20023;BME280;10172;42.054;24.546;2023-03-05T11:13:59;97508.63;;;11.43;83.69
20023;BME280;10172;42.054;24.546;2023-03-05T11:16:31;97502.06;;;11.47;82.95
20023;BME280;10172;42.054;24.546;2023-03-05T11:19:23;97502.38;;;11.85;81.73
20023;BME280;10172;42.054;24.546;2023-03-05T11:22:15;97477.53;;;11.64;80.42
20023;BME280;10172;42.054;24.546;2023-03-05T11:24:43;97483.53;;;11.77;82.70
20023;BME280;10172;42.054;24.546;2023-03-05T11:27:34;97463.09;;;11.87;82.72
20023;BME280;10172;42.054;24.546;2023-03-05T11:30:01;97450.13;;;11.94;81.39
20023;BME280;10172;42.054;24.546;2023-03-05T11:32:28;97435.78;;;12.16;83.63
20023;BME280;10172;42.054;24.546;2023-03-05T11:34:55;97469.41;;;13.06;81.92
20023;BME280;10172;42.054;24.546;2023-03-05T11:37:31;97464.13;;;12.56;79.34
20023;BME280;10172;42.054;24.546;2023-03-05T11:42:37;97428.53;;;11.76;82.91
20023;BME280;10172;42.054;24.546;2023-03-05T11:45:05;97431.47;;;11.94;84.86
20023;BME280;10172;42.054;24.546;2023-03-05T11:52:35;97451.59;;;12.47;83.99
20023;BME280;10172;42.054;24.546;2023-03-05T11:55:14;97409.56;;;11.49;84.54
20023;BME280;10172;42.054;24.546;2023-03-05T11:57:49;97434.56;;;11.37;84.76
20023;BME280;10172;42.054;24.546;2023-03-05T12:00:21;97441.31;;;12.03;87.25
20023;BME280;10172;42.054;24.546;2023-03-05T12:02:51;97425.81;;;11.46;84.18
20023;BME280;10172;42.054;24.546;2023-03-05T12:05:19;97416.06;;;11.77;85.27
20023;BME280;10172;42.054;24.546;2023-03-05T12:07:49;97438.16;;;12.68;82.65
20023;BME280;10172;42.054;24.546;2023-03-05T12:10:20;97416.31;;;11.94;84.48
20023;BME280;10172;42.054;24.546;2023-03-05T12:13:09;97434.91;;;12.15;83.92
20023;BME280;10172;42.054;24.546;2023-03-05T12:16:02;97418.41;;;11.29;86.23
20023;BME280;10172;42.054;24.546;2023-03-05T12:18:39;97417.88;;;11.76;84.68
20023;BME280;10172;42.054;24.546;2023-03-05T12:21:34;97424.66;;;12.11;80.43
20023;BME280;10172;42.054;24.546;2023-03-05T12:29:47;97417.81;;;12.18;82.55
20023;BME280;10172;42.054;24.546;2023-03-05T12:53:13;97407.63;;;13.30;79.21
20023;BME280;10172;42.054;24.546;2023-03-05T12:58:23;97405.34;;;12.96;78.44
20023;BME280;10172;42.054;24.546;2023-03-05T13:00:58;97389.91;;;12.22;78.09
20023;BME280;10172;42.054;24.546;2023-03-05T13:03:30;97405.75;;;12.23;78.89
20023;BME280;10172;42.054;24.546;2023-03-05T13:05:59;97391.69;;;12.51;81.43
20023;BME280;10172;42.054;24.546;2023-03-05T13:08:27;97388.16;;;12.51;77.46
20023;BME280;10172;42.054;24.546;2023-03-05T13:10:59;97396.06;;;12.81;78.63
20023;BME280;10172;42.054;24.546;2023-03-05T13:13:31;97402.50;;;12.79;80.21
20023;BME280;10172;42.054;24.546;2023-03-05T13:15:59;97358.63;;;11.63;77.51
20023;BME280;10172;42.054;24.546;2023-03-05T13:18:27;97379.69;;;12.27;76.10
20023;BME280;10172;42.054;24.546;2023-03-05T13:21:32;97399.78;;;12.40;77.74
20023;BME280;10172;42.054;24.546;2023-03-05T13:24:01;97394.53;;;13.36;75.14
20023;BME280;10172;42.054;24.546;2023-03-05T13:26:28;97394.91;;;13.70;75.56
20023;BME280;10172;42.054;24.546;2023-03-05T13:29:21;97402.94;;;13.60;73.30
20023;BME280;10172;42.054;24.546;2023-03-05T13:32:26;97392.56;;;13.00;75.55
20023;BME280;10172;42.054;24.546;2023-03-05T13:34:57;97396.31;;;12.59;75.57
20023;BME280;10172;42.054;24.546;2023-03-05T13:37:26;97402.66;;;12.87;73.83
20023;BME280;10172;42.054;24.546;2023-03-05T13:39:56;97408.84;;;13.06;73.66
20023;BME280;10172;42.054;24.546;2023-03-05T13:42:28;97381.00;;;12.61;73.97
20023;BME280;10172;42.054;24.546;2023-03-05T13:44:56;97398.59;;;12.92;72.81
20023;BME280;10172;42.054;24.546;2023-03-05T13:47:23;97398.75;;;12.81;73.30
20023;BME280;10172;42.054;24.546;2023-03-05T13:50:04;97379.44;;;12.49;73.68
20023;BME280;10172;42.054;24.546;2023-03-05T13:52:33;97374.56;;;12.05;74.41
20023;BME280;10172;42.054;24.546;2023-03-05T13:54:59;97392.00;;;12.28;75.98
20023;BME280;10172;42.054;24.546;2023-03-05T13:57:43;97390.88;;;12.70;73.49
20023;BME280;10172;42.054;24.546;2023-03-05T14:00:35;97393.50;;;12.60;72.54
20023;BME280;10172;42.054;24.546;2023-03-05T14:03:20;97392.78;;;12.09;74.36
20023;BME280;10172;42.054;24.546;2023-03-05T14:05:47;97384.59;;;12.22;74.33